sensor_id;sensor_type;location;lat;lon;timestamp;temperature;humidity
44579;DHT22;37422;51.402;0.016;2022-08-19T00:00:14;20.00;99.90
44579;DHT22;37422;51.402;0.016;2022-08-19T00:02:45;20.00;99.90
44579;DHT22;37422;51.402;0.016;2022-08-19T00:05:18;20.10;99.90
44579;DHT22;37422;51.402;0.016;2022-08-19T00:07:51;20.10;99.90
44579;DHT22;37422;51.402;0.016;2022-08-19T00:10:24;20.10;99.90
44579;DHT22;37422;51.402;0.016;2022-08-19T00:12:52;20.20;99.90
44579;DHT22;37422;51.402;0.016;2022-08-19T00:15:21;20.20;99.90
44579;DHT22;37422;51.402;0.016;2022-08-19T00:17:49;20.20;99.90
44579;DHT22;37422;51.402;0.016;2022-08-19T00:20:19;20.20;99.90
44579;DHT22;37422;51.402;0.016;2022-08-19T00:22:49;20.20;99.90
44579;DHT22;37422;51.402;0.016;2022-08-19T00:25:17;20.20;99.90
44579;DHT22;37422;51.402;0.016;2022-08-19T00:27:56;20.20;99.90
44579;DHT22;37422;51.402;0.016;2022-08-19T00:30:27;20.30;99.90
44579;DHT22;37422;51.402;0.016;2022-08-19T00:32:57;20.30;99.90
44579;DHT22;37422;51.402;0.016;2022-08-19T00:35:25;20.30;99.90
44579;DHT22;37422;51.402;0.016;2022-08-19T00:37:56;20.30;99.90
44579;DHT22;37422;51.402;0.016;2022-08-19T00:40:25;20.30;99.90
44579;DHT22;37422;51.402;0.016;2022-08-19T00:42:56;20.20;99.90
44579;DHT22;37422;51.402;0.016;2022-08-19T00:45:27;20.30;99.90
44579;DHT22;37422;51.402;0.016;2022-08-19T00:47:55;20.30;99.90
44579;DHT22;37422;51.402;0.016;2022-08-19T00:50:23;20.30;99.90
44579;DHT22;37422;51.402;0.016;2022-08-19T00:52:51;20.30;99.90
44579;DHT22;37422;51.402;0.016;2022-08-19T00:55:26;20.30;99.90
44579;DHT22;37422;51.402;0.016;2022-08-19T00:58:00;20.30;99.90
44579;DHT22;37422;51.402;0.016;2022-08-19T01:00:33;20.30;99.90
44579;DHT22;37422;51.402;0.016;2022-08-19T01:03:09;20.30;99.90
44579;DHT22;37422;51.402;0.016;2022-08-19T01:05:43;20.30;99.90
44579;DHT22;37422;51.402;0.016;2022-08-19T01:08:12;20.30;99.90
44579;DHT22;37422;51.402;0.016;2022-08-19T01:10:51;20.20;99.90
44579;DHT22;37422;51.402;0.016;2022-08-19T01:13:23;20.20;99.90
44579;DHT22;37422;51.402;0.016;2022-08-19T01:16:17;20.10;99.90
44579;DHT22;37422;51.402;0.016;2022-08-19T01:18:46;20.00;99.90
44579;DHT22;37422;51.402;0.016;2022-08-19T01:23:49;20.00;99.90
44579;DHT22;37422;51.402;0.016;2022-08-19T01:26:23;20.00;99.90
44579;DHT22;37422;51.402;0.016;2022-08-19T01:28:54;20.00;99.90
44579;DHT22;37422;51.402;0.016;2022-08-19T01:31:31;20.00;99.90
44579;DHT22;37422;51.402;0.016;2022-08-19T01:34:06;20.00;99.90
44579;DHT22;37422;51.402;0.016;2022-08-19T01:36:42;20.00;99.90
44579;DHT22;37422;51.402;0.016;2022-08-19T01:39:20;20.00;99.90
44579;DHT22;37422;51.402;0.016;2022-08-19T01:41:49;20.00;99.90
44579;DHT22;37422;51.402;0.016;2022-08-19T01:44:19;20.00;99.90
44579;DHT22;37422;51.402;0.016;2022-08-19T01:46:51;20.00;99.90
44579;DHT22;37422;51.402;0.016;2022-08-19T01:49:21;20.00;99.90
44579;DHT22;37422;51.402;0.016;2022-08-19T01:51:53;20.00;99.90
44579;DHT22;37422;51.402;0.016;2022-08-19T01:54:24;20.00;99.90
44579;DHT22;37422;51.402;0.016;2022-08-19T01:57:02;20.00;99.90
44579;DHT22;37422;51.402;0.016;2022-08-19T01:59:31;20.00;99.90
44579;DHT22;37422;51.402;0.016;2022-08-19T02:02:04;20.00;99.90
44579;DHT22;37422;51.402;0.016;2022-08-19T02:04:34;20.00;99.90
44579;DHT22;37422;51.402;0.016;2022-08-19T02:07:02;20.00;99.90
44579;DHT22;37422;51.402;0.016;2022-08-19T02:09:32;20.10;99.90
44579;DHT22;37422;51.402;0.016;2022-08-19T02:12:02;20.10;99.90
44579;DHT22;37422;51.402;0.016;2022-08-19T02:14:30;20.10;99.90
44579;DHT22;37422;51.402;0.016;2022-08-19T02:16:57;20.10;99.90
44579;DHT22;37422;51.402;0.016;2022-08-19T02:19:25;20.20;99.90
44579;DHT22;37422;51.402;0.016;2022-08-19T02:21:53;20.10;99.90
44579;DHT22;37422;51.402;0.016;2022-08-19T02:24:20;20.10;99.90
44579;DHT22;37422;51.402;0.016;2022-08-19T02:26:49;20.10;99.90
44579;DHT22;37422;51.402;0.016;2022-08-19T02:29:17;20.10;99.90
44579;DHT22;37422;51.402;0.016;2022-08-19T02:31:45;20.10;99.90
44579;DHT22;37422;51.402;0.016;2022-08-19T02:34:12;20.20;99.90
44579;DHT22;37422;51.402;0.016;2022-08-19T02:36:43;20.10;99.90
44579;DHT22;37422;51.402;0.016;2022-08-19T02:39:18;20.20;99.90
44579;DHT22;37422;51.402;0.016;2022-08-19T02:41:46;20.20;99.90
44579;DHT22;37422;51.402;0.016;2022-08-19T02:44:13;20.20;99.90
44579;DHT22;37422;51.402;0.016;2022-08-19T02:46:57;20.20;99.90
44579;DHT22;37422;51.402;0.016;2022-08-19T02:49:27;20.20;99.90
44579;DHT22;37422;51.402;0.016;2022-08-19T02:51:55;20.20;99.90
44579;DHT22;37422;51.402;0.016;2022-08-19T02:54:23;20.20;99.90
44579;DHT22;37422;51.402;0.016;2022-08-19T02:56:51;20.20;99.90
44579;DHT22;37422;51.402;0.016;2022-08-19T02:59:18;20.20;99.90
44579;DHT22;37422;51.402;0.016;2022-08-19T03:01:51;20.30;99.90
44579;DHT22;37422;51.402;0.016;2022-08-19T03:04:19;20.30;99.90
44579;DHT22;37422;51.402;0.016;2022-08-19T03:06:47;20.30;99.90
44579;DHT22;37422;51.402;0.016;2022-08-19T03:09:26;20.30;99.90
44579;DHT22;37422;51.402;0.016;2022-08-19T03:11:54;20.30;99.90
44579;DHT22;37422;51.402;0.016;2022-08-19T03:14:24;20.30;99.90
44579;DHT22;37422;51.402;0.016;2022-08-19T03:16:52;20.30;99.90
44579;DHT22;37422;51.402;0.016;2022-08-19T03:19:20;20.30;99.90
44579;DHT22;37422;51.402;0.016;2022-08-19T03:21:49;20.30;99.90
44579;DHT22;37422;51.402;0.016;2022-08-19T03:24:18;20.30;99.90
44579;DHT22;37422;51.402;0.016;2022-08-19T03:26:49;20.30;99.90
44579;DHT22;37422;51.402;0.016;2022-08-19T03:29:19;20.30;99.90
44579;DHT22;37422;51.402;0.016;2022-08-19T03:31:57;20.30;99.90
44579;DHT22;37422;51.402;0.016;2022-08-19T03:34:29;20.30;99.90
44579;DHT22;37422;51.402;0.016;2022-08-19T03:37:01;20.30;99.90
44579;DHT22;37422;51.402;0.016;2022-08-19T03:39:30;20.40;99.90
44579;DHT22;37422;51.402;0.016;2022-08-19T03:42:06;20.40;99.90
44579;DHT22;37422;51.402;0.016;2022-08-19T03:44:53;20.40;99.90
44579;DHT22;37422;51.402;0.016;2022-08-19T03:47:21;20.30;99.90
44579;DHT22;37422;51.402;0.016;2022-08-19T03:49:49;20.20;99.90
44579;DHT22;37422;51.402;0.016;2022-08-19T03:52:16;20.00;99.90
44579;DHT22;37422;51.402;0.016;2022-08-19T03:54:44;19.90;99.90
44579;DHT22;37422;51.402;0.016;2022-08-19T03:57:13;19.90;99.90
44579;DHT22;37422;51.402;0.016;2022-08-19T03:59:42;19.90;99.90
44579;DHT22;37422;51.402;0.016;2022-08-19T04:02:12;19.80;99.90
44579;DHT22;37422;51.402;0.016;2022-08-19T04:04:42;19.80;99.90
44579;DHT22;37422;51.402;0.016;2022-08-19T04:07:13;19.80;99.90
44579;DHT22;37422;51.402;0.016;2022-08-19T04:09:43;19.80;99.90
44579;DHT22;37422;51.402;0.016;2022-08-19T04:12:11;19.80;99.90
44579;DHT22;37422;51.402;0.016;2022-08-19T04:14:39;19.80;99.90
44579;DHT22;37422;51.402;0.016;2022-08-19T04:17:07;19.80;99.90
44579;DHT22;37422;51.402;0.016;2022-08-19T04:19:36;19.80;99.90
44579;DHT22;37422;51.402;0.016;2022-08-19T04:22:04;19.80;99.90
44579;DHT22;37422;51.402;0.016;2022-08-19T04:24:35;19.80;99.90
44579;DHT22;37422;51.402;0.016;2022-08-19T04:27:03;19.80;99.90
44579;DHT22;37422;51.402;0.016;2022-08-19T04:29:31;19.80;99.90
44579;DHT22;37422;51.402;0.016;2022-08-19T04:32:00;19.70;99.90
44579;DHT22;37422;51.402;0.016;2022-08-19T04:34:37;19.70;99.90
44579;DHT22;37422;51.402;0.016;2022-08-19T04:37:32;19.80;99.90
44579;DHT22;37422;51.402;0.016;2022-08-19T04:40:04;19.80;99.90
44579;DHT22;37422;51.402;0.016;2022-08-19T04:42:51;19.80;99.90
44579;DHT22;37422;51.402;0.016;2022-08-19T04:45:19;19.80;99.90
44579;DHT22;37422;51.402;0.016;2022-08-19T04:47:54;19.90;99.90
44579;DHT22;37422;51.402;0.016;2022-08-19T04:50:44;19.80;99.90
44579;DHT22;37422;51.402;0.016;2022-08-19T04:53:11;19.80;99.90
44579;DHT22;37422;51.402;0.016;2022-08-19T04:55:42;19.80;99.90
44579;DHT22;37422;51.402;0.016;2022-08-19T04:58:10;19.90;99.90
44579;DHT22;37422;51.402;0.016;2022-08-19T05:00:39;19.80;99.90
44579;DHT22;37422;51.402;0.016;2022-08-19T05:03:07;19.80;99.90
44579;DHT22;37422;51.402;0.016;2022-08-19T05:05:44;19.80;99.90
44579;DHT22;37422;51.402;0.016;2022-08-19T05:08:17;19.80;99.90
44579;DHT22;37422;51.402;0.016;2022-08-19T05:10:57;19.90;99.90
44579;DHT22;37422;51.402;0.016;2022-08-19T05:13:25;19.90;99.90
44579;DHT22;37422;51.402;0.016;2022-08-19T05:15:59;19.90;99.90
44579;DHT22;37422;51.402;0.016;2022-08-19T05:18:27;19.90;99.90
44579;DHT22;37422;51.402;0.016;2022-08-19T05:21:18;19.90;99.90
44579;DHT22;37422;51.402;0.016;2022-08-19T05:24:05;19.90;99.90
44579;DHT22;37422;51.402;0.016;2022-08-19T05:26:37;19.90;99.90
44579;DHT22;37422;51.402;0.016;2022-08-19T05:29:08;19.90;99.90
44579;DHT22;37422;51.402;0.016;2022-08-19T05:31:37;20.00;99.90
44579;DHT22;37422;51.402;0.016;2022-08-19T05:34:09;19.90;99.90
44579;DHT22;37422;51.402;0.016;2022-08-19T05:36:47;20.00;99.90
44579;DHT22;37422;51.402;0.016;2022-08-19T05:39:18;20.00;99.90
44579;DHT22;37422;51.402;0.016;2022-08-19T05:41:49;20.00;99.90
44579;DHT22;37422;51.402;0.016;2022-08-19T05:44:18;20.00;99.90
44579;DHT22;37422;51.402;0.016;2022-08-19T05:46:47;20.00;99.90
44579;DHT22;37422;51.402;0.016;2022-08-19T05:49:16;20.00;99.90
44579;DHT22;37422;51.402;0.016;2022-08-19T05:51:46;20.00;99.90
44579;DHT22;37422;51.402;0.016;2022-08-19T05:54:14;20.10;99.90
44579;DHT22;37422;51.402;0.016;2022-08-19T05:56:42;20.10;99.90
44579;DHT22;37422;51.402;0.016;2022-08-19T05:59:10;20.20;99.90
44579;DHT22;37422;51.402;0.016;2022-08-19T06:01:40;20.30;99.90
44579;DHT22;37422;51.402;0.016;2022-08-19T06:04:08;20.40;99.90
44579;DHT22;37422;51.402;0.016;2022-08-19T06:06:36;20.50;99.90
44579;DHT22;37422;51.402;0.016;2022-08-19T06:09:06;20.50;99.90
44579;DHT22;37422;51.402;0.016;2022-08-19T06:11:47;20.60;99.90
44579;DHT22;37422;51.402;0.016;2022-08-19T06:14:25;20.70;99.90
44579;DHT22;37422;51.402;0.016;2022-08-19T06:16:55;20.90;99.90
44579;DHT22;37422;51.402;0.016;2022-08-19T06:19:23;21.10;99.90
44579;DHT22;37422;51.402;0.016;2022-08-19T06:21:56;21.20;99.90
44579;DHT22;37422;51.402;0.016;2022-08-19T06:24:28;21.50;99.90
44579;DHT22;37422;51.402;0.016;2022-08-19T06:26:58;21.30;99.90
44579;DHT22;37422;51.402;0.016;2022-08-19T06:29:28;21.30;99.90
44579;DHT22;37422;51.402;0.016;2022-08-19T06:31:59;21.20;99.90
44579;DHT22;37422;51.402;0.016;2022-08-19T06:34:32;21.20;99.90
44579;DHT22;37422;51.402;0.016;2022-08-19T06:37:01;21.20;99.90
44579;DHT22;37422;51.402;0.016;2022-08-19T06:39:32;21.10;99.90
44579;DHT22;37422;51.402;0.016;2022-08-19T06:42:04;21.10;99.90
44579;DHT22;37422;51.402;0.016;2022-08-19T06:44:43;21.10;99.90
44579;DHT22;37422;51.402;0.016;2022-08-19T06:47:18;21.10;99.90
44579;DHT22;37422;51.402;0.016;2022-08-19T06:49:59;21.10;99.90
44579;DHT22;37422;51.402;0.016;2022-08-19T06:52:34;21.10;99.90
44579;DHT22;37422;51.402;0.016;2022-08-19T06:55:05;21.10;99.90
44579;DHT22;37422;51.402;0.016;2022-08-19T06:57:37;21.10;99.90
44579;DHT22;37422;51.402;0.016;2022-08-19T07:00:12;21.00;99.90
44579;DHT22;37422;51.402;0.016;2022-08-19T07:02:44;21.00;99.90
44579;DHT22;37422;51.402;0.016;2022-08-19T07:05:24;21.00;99.90
44579;DHT22;37422;51.402;0.016;2022-08-19T07:07:52;21.00;99.90
44579;DHT22;37422;51.402;0.016;2022-08-19T07:10:23;21.00;99.90
44579;DHT22;37422;51.402;0.016;2022-08-19T07:12:55;21.00;99.90
44579;DHT22;37422;51.402;0.016;2022-08-19T07:15:23;21.00;99.90
44579;DHT22;37422;51.402;0.016;2022-08-19T07:18:09;21.00;99.90
44579;DHT22;37422;51.402;0.016;2022-08-19T07:20:44;21.00;99.90
44579;DHT22;37422;51.402;0.016;2022-08-19T07:23:13;21.00;99.90
44579;DHT22;37422;51.402;0.016;2022-08-19T07:25:45;21.00;99.90
44579;DHT22;37422;51.402;0.016;2022-08-19T07:28:25;21.00;99.90
44579;DHT22;37422;51.402;0.016;2022-08-19T07:30:58;21.10;99.90
44579;DHT22;37422;51.402;0.016;2022-08-19T07:33:27;21.10;99.90
44579;DHT22;37422;51.402;0.016;2022-08-19T07:36:07;21.10;99.90
44579;DHT22;37422;51.402;0.016;2022-08-19T07:38:42;21.10;99.90
44579;DHT22;37422;51.402;0.016;2022-08-19T07:41:14;21.10;99.90
44579;DHT22;37422;51.402;0.016;2022-08-19T07:43:45;21.20;99.90
44579;DHT22;37422;51.402;0.016;2022-08-19T07:46:14;21.30;99.90
44579;DHT22;37422;51.402;0.016;2022-08-19T07:48:43;21.50;99.90
44579;DHT22;37422;51.402;0.016;2022-08-19T07:51:16;21.80;99.90
44579;DHT22;37422;51.402;0.016;2022-08-19T07:54:03;22.20;99.90
44579;DHT22;37422;51.402;0.016;2022-08-19T07:56:31;22.60;99.90
44579;DHT22;37422;51.402;0.016;2022-08-19T07:58:59;22.90;99.90
44579;DHT22;37422;51.402;0.016;2022-08-19T08:01:27;23.00;99.90
44579;DHT22;37422;51.402;0.016;2022-08-19T08:03:57;23.00;99.90
44579;DHT22;37422;51.402;0.016;2022-08-19T08:06:43;23.20;99.60
44579;DHT22;37422;51.402;0.016;2022-08-19T08:09:36;23.20;99.40
44579;DHT22;37422;51.402;0.016;2022-08-19T08:12:12;23.40;99.10
44579;DHT22;37422;51.402;0.016;2022-08-19T08:15:05;23.40;99.10
44579;DHT22;37422;51.402;0.016;2022-08-19T08:17:34;23.50;98.70
44579;DHT22;37422;51.402;0.016;2022-08-19T08:20:16;23.50;98.70
44579;DHT22;37422;51.402;0.016;2022-08-19T08:22:52;23.50;98.60
44579;DHT22;37422;51.402;0.016;2022-08-19T08:25:38;23.60;98.60
44579;DHT22;37422;51.402;0.016;2022-08-19T08:28:12;23.60;98.40
44579;DHT22;37422;51.402;0.016;2022-08-19T08:30:45;23.80;98.10
44579;DHT22;37422;51.402;0.016;2022-08-19T08:33:23;23.80;98.00
44579;DHT22;37422;51.402;0.016;2022-08-19T08:36:10;23.90;97.80
44579;DHT22;37422;51.402;0.016;2022-08-19T08:38:40;24.00;97.40
44579;DHT22;37422;51.402;0.016;2022-08-19T08:41:28;24.00;97.80
44579;DHT22;37422;51.402;0.016;2022-08-19T08:43:57;24.20;97.40
44579;DHT22;37422;51.402;0.016;2022-08-19T08:46:36;24.40;97.80
44579;DHT22;37422;51.402;0.016;2022-08-19T08:54:42;25.00;95.80
44579;DHT22;37422;51.402;0.016;2022-08-19T08:57:28;25.10;95.70
44579;DHT22;37422;51.402;0.016;2022-08-19T09:00:16;25.10;95.80
44579;DHT22;37422;51.402;0.016;2022-08-19T09:02:44;25.10;95.10
44579;DHT22;37422;51.402;0.016;2022-08-19T09:05:23;25.30;96.20
44579;DHT22;37422;51.402;0.016;2022-08-19T09:08:06;25.50;96.00
44579;DHT22;37422;51.402;0.016;2022-08-19T09:10:48;25.60;94.40
44579;DHT22;37422;51.402;0.016;2022-08-19T09:13:41;25.50;94.80
44579;DHT22;37422;51.402;0.016;2022-08-19T09:16:23;25.40;94.70
44579;DHT22;37422;51.402;0.016;2022-08-19T09:18:56;25.70;94.50
44579;DHT22;37422;51.402;0.016;2022-08-19T09:21:26;26.30;94.50
44579;DHT22;37422;51.402;0.016;2022-08-19T09:24:03;26.70;93.90
44579;DHT22;37422;51.402;0.016;2022-08-19T09:26:32;26.90;92.00
44579;DHT22;37422;51.402;0.016;2022-08-19T09:29:19;26.80;92.00
44579;DHT22;37422;51.402;0.016;2022-08-19T09:31:52;26.70;91.80
44579;DHT22;37422;51.402;0.016;2022-08-19T09:34:23;26.80;91.80
44579;DHT22;37422;51.402;0.016;2022-08-19T09:36:50;27.10;91.80
44579;DHT22;37422;51.402;0.016;2022-08-19T09:39:25;27.50;91.60
44579;DHT22;37422;51.402;0.016;2022-08-19T09:42:02;27.90;91.00
44579;DHT22;37422;51.402;0.016;2022-08-19T09:44:43;28.10;90.20
44579;DHT22;37422;51.402;0.016;2022-08-19T09:47:13;28.30;89.90
44579;DHT22;37422;51.402;0.016;2022-08-19T09:49:46;28.40;89.10
44579;DHT22;37422;51.402;0.016;2022-08-19T09:52:18;28.50;88.30
44579;DHT22;37422;51.402;0.016;2022-08-19T09:54:59;28.70;87.40
44579;DHT22;37422;51.402;0.016;2022-08-19T09:57:34;28.60;86.60
44579;DHT22;37422;51.402;0.016;2022-08-19T10:00:07;28.30;85.60
44579;DHT22;37422;51.402;0.016;2022-08-19T10:02:37;28.00;83.40
44579;DHT22;37422;51.402;0.016;2022-08-19T10:05:07;27.60;85.40
44579;DHT22;37422;51.402;0.016;2022-08-19T10:07:57;27.50;85.80
44579;DHT22;37422;51.402;0.016;2022-08-19T10:10:35;27.30;85.60
44579;DHT22;37422;51.402;0.016;2022-08-19T10:13:10;27.20;85.60
44579;DHT22;37422;51.402;0.016;2022-08-19T10:15:44;27.20;85.40
44579;DHT22;37422;51.402;0.016;2022-08-19T10:18:16;27.20;85.80
44579;DHT22;37422;51.402;0.016;2022-08-19T10:20:48;27.30;85.70
44579;DHT22;37422;51.402;0.016;2022-08-19T10:23:22;27.30;84.30
44579;DHT22;37422;51.402;0.016;2022-08-19T10:25:50;27.10;84.10
44579;DHT22;37422;51.402;0.016;2022-08-19T10:28:18;26.80;84.30
44579;DHT22;37422;51.402;0.016;2022-08-19T10:30:46;26.50;84.30
44579;DHT22;37422;51.402;0.016;2022-08-19T10:33:15;26.20;84.50
44579;DHT22;37422;51.402;0.016;2022-08-19T10:36:06;25.90;85.10
44579;DHT22;37422;51.402;0.016;2022-08-19T10:38:36;25.70;85.60
44579;DHT22;37422;51.402;0.016;2022-08-19T10:41:10;25.50;85.70
44579;DHT22;37422;51.402;0.016;2022-08-19T10:43:39;25.30;85.70
44579;DHT22;37422;51.402;0.016;2022-08-19T10:46:11;25.10;86.10
44579;DHT22;37422;51.402;0.016;2022-08-19T10:48:43;24.90;86.60
44579;DHT22;37422;51.402;0.016;2022-08-19T10:51:12;24.60;87.00
44579;DHT22;37422;51.402;0.016;2022-08-19T10:53:59;24.50;87.80
44579;DHT22;37422;51.402;0.016;2022-08-19T10:56:28;24.50;88.50
44579;DHT22;37422;51.402;0.016;2022-08-19T10:59:15;24.70;88.90
44579;DHT22;37422;51.402;0.016;2022-08-19T11:01:45;24.70;88.40
44579;DHT22;37422;51.402;0.016;2022-08-19T11:04:18;24.70;88.30
44579;DHT22;37422;51.402;0.016;2022-08-19T11:06:55;24.60;88.50
44579;DHT22;37422;51.402;0.016;2022-08-19T11:09:25;24.50;89.00
44579;DHT22;37422;51.402;0.016;2022-08-19T11:12:01;24.50;89.00
44579;DHT22;37422;51.402;0.016;2022-08-19T11:14:31;24.30;89.20
44579;DHT22;37422;51.402;0.016;2022-08-19T11:17:02;24.30;89.60
44579;DHT22;37422;51.402;0.016;2022-08-19T11:19:30;24.30;90.00
44579;DHT22;37422;51.402;0.016;2022-08-19T11:22:02;24.50;90.10
44579;DHT22;37422;51.402;0.016;2022-08-19T11:24:36;24.80;90.10
44579;DHT22;37422;51.402;0.016;2022-08-19T11:27:07;25.00;89.70
44579;DHT22;37422;51.402;0.016;2022-08-19T11:29:38;25.20;89.00
44579;DHT22;37422;51.402;0.016;2022-08-19T11:32:09;25.30;88.70
44579;DHT22;37422;51.402;0.016;2022-08-19T11:34:45;25.40;88.50
44579;DHT22;37422;51.402;0.016;2022-08-19T11:37:13;25.70;88.10
44579;DHT22;37422;51.402;0.016;2022-08-19T11:39:42;25.80;87.80
44579;DHT22;37422;51.402;0.016;2022-08-19T11:42:20;25.90;87.30
44579;DHT22;37422;51.402;0.016;2022-08-19T11:45:07;25.70;87.10
44579;DHT22;37422;51.402;0.016;2022-08-19T11:47:35;25.70;87.30
44579;DHT22;37422;51.402;0.016;2022-08-19T11:50:07;25.60;87.20
44579;DHT22;37422;51.402;0.016;2022-08-19T11:52:38;25.70;86.80
44579;DHT22;37422;51.402;0.016;2022-08-19T11:55:10;25.70;86.70
44579;DHT22;37422;51.402;0.016;2022-08-19T11:57:38;25.70;86.30
44579;DHT22;37422;51.402;0.016;2022-08-19T12:00:09;25.60;85.90
44579;DHT22;37422;51.402;0.016;2022-08-19T12:02:43;25.50;85.40
44579;DHT22;37422;51.402;0.016;2022-08-19T12:05:11;25.40;85.50
44579;DHT22;37422;51.402;0.016;2022-08-19T12:07:40;25.30;85.30
44579;DHT22;37422;51.402;0.016;2022-08-19T12:10:10;25.30;84.70
44579;DHT22;37422;51.402;0.016;2022-08-19T12:12:38;25.30;83.70
44579;DHT22;37422;51.402;0.016;2022-08-19T12:15:27;25.30;83.00
44579;DHT22;37422;51.402;0.016;2022-08-19T12:18:06;25.30;82.40
44579;DHT22;37422;51.402;0.016;2022-08-19T12:20:36;25.30;82.20
44579;DHT22;37422;51.402;0.016;2022-08-19T12:23:09;25.30;80.10
44579;DHT22;37422;51.402;0.016;2022-08-19T12:25:45;25.30;82.00
44579;DHT22;37422;51.402;0.016;2022-08-19T12:28:19;25.40;81.60
44579;DHT22;37422;51.402;0.016;2022-08-19T12:30:48;25.50;81.20
44579;DHT22;37422;51.402;0.016;2022-08-19T12:33:21;25.50;80.60
44579;DHT22;37422;51.402;0.016;2022-08-19T12:36:04;25.70;80.60
44579;DHT22;37422;51.402;0.016;2022-08-19T12:38:33;25.70;79.50
44579;DHT22;37422;51.402;0.016;2022-08-19T12:41:04;25.70;79.50
44579;DHT22;37422;51.402;0.016;2022-08-19T12:43:35;25.60;78.30
44579;DHT22;37422;51.402;0.016;2022-08-19T12:46:08;25.50;78.10
44579;DHT22;37422;51.402;0.016;2022-08-19T12:48:38;25.40;75.20
44579;DHT22;37422;51.402;0.016;2022-08-19T12:51:16;25.20;77.50
44579;DHT22;37422;51.402;0.016;2022-08-19T12:53:50;25.10;76.80
44579;DHT22;37422;51.402;0.016;2022-08-19T12:56:27;24.90;76.30
44579;DHT22;37422;51.402;0.016;2022-08-19T12:58:56;25.00;76.80
44579;DHT22;37422;51.402;0.016;2022-08-19T13:01:26;25.20;76.50
44579;DHT22;37422;51.402;0.016;2022-08-19T13:03:55;25.90;73.70
44579;DHT22;37422;51.402;0.016;2022-08-19T13:06:23;26.70;74.80
44579;DHT22;37422;51.402;0.016;2022-08-19T13:08:54;27.40;73.60
44579;DHT22;37422;51.402;0.016;2022-08-19T13:11:26;27.70;71.70
44579;DHT22;37422;51.402;0.016;2022-08-19T13:13:54;28.30;71.50
44579;DHT22;37422;51.402;0.016;2022-08-19T13:16:24;28.90;71.30
44579;DHT22;37422;51.402;0.016;2022-08-19T13:18:52;29.70;70.20
44579;DHT22;37422;51.402;0.016;2022-08-19T13:21:22;30.60;67.30
44579;DHT22;37422;51.402;0.016;2022-08-19T13:23:51;31.10;66.70
44579;DHT22;37422;51.402;0.016;2022-08-19T13:26:22;31.40;65.20
44579;DHT22;37422;51.402;0.016;2022-08-19T13:28:50;31.70;63.90
44579;DHT22;37422;51.402;0.016;2022-08-19T13:31:40;32.60;63.20
44579;DHT22;37422;51.402;0.016;2022-08-19T13:34:32;32.40;61.70
44579;DHT22;37422;51.402;0.016;2022-08-19T13:37:02;32.80;60.60
44579;DHT22;37422;51.402;0.016;2022-08-19T13:39:35;33.10;60.70
44579;DHT22;37422;51.402;0.016;2022-08-19T13:42:03;33.20;59.40
44579;DHT22;37422;51.402;0.016;2022-08-19T13:44:32;33.00;58.30
44579;DHT22;37422;51.402;0.016;2022-08-19T13:47:01;32.30;57.00
44579;DHT22;37422;51.402;0.016;2022-08-19T13:49:34;32.30;57.40
44579;DHT22;37422;51.402;0.016;2022-08-19T13:52:04;32.30;57.40
44579;DHT22;37422;51.402;0.016;2022-08-19T13:54:32;32.50;56.80
44579;DHT22;37422;51.402;0.016;2022-08-19T13:57:03;32.80;55.90
44579;DHT22;37422;51.402;0.016;2022-08-19T13:59:31;33.20;56.60
44579;DHT22;37422;51.402;0.016;2022-08-19T14:02:00;33.50;56.00
44579;DHT22;37422;51.402;0.016;2022-08-19T14:04:28;33.80;55.70
44579;DHT22;37422;51.402;0.016;2022-08-19T14:06:58;34.00;55.10
44579;DHT22;37422;51.402;0.016;2022-08-19T14:09:25;33.90;54.60
44579;DHT22;37422;51.402;0.016;2022-08-19T14:11:54;33.60;54.50
44579;DHT22;37422;51.402;0.016;2022-08-19T14:14:23;33.30;53.80
44579;DHT22;37422;51.402;0.016;2022-08-19T14:16:51;33.20;53.50
44579;DHT22;37422;51.402;0.016;2022-08-19T14:19:19;33.20;53.20
44579;DHT22;37422;51.402;0.016;2022-08-19T14:21:49;33.30;52.90
44579;DHT22;37422;51.402;0.016;2022-08-19T14:24:17;33.40;52.50
44579;DHT22;37422;51.402;0.016;2022-08-19T14:26:45;33.50;52.20
44579;DHT22;37422;51.402;0.016;2022-08-19T14:29:15;33.70;52.10
44579;DHT22;37422;51.402;0.016;2022-08-19T14:31:48;33.80;50.80
44579;DHT22;37422;51.402;0.016;2022-08-19T14:34:16;33.90;51.10
44579;DHT22;37422;51.402;0.016;2022-08-19T14:36:46;34.00;50.40
44579;DHT22;37422;51.402;0.016;2022-08-19T14:39:16;34.00;49.70
44579;DHT22;37422;51.402;0.016;2022-08-19T14:41:44;33.90;49.20
44579;DHT22;37422;51.402;0.016;2022-08-19T14:44:17;33.80;49.20
44579;DHT22;37422;51.402;0.016;2022-08-19T14:46:45;33.80;48.30
44579;DHT22;37422;51.402;0.016;2022-08-19T14:49:16;33.70;48.30
44579;DHT22;37422;51.402;0.016;2022-08-19T14:51:47;33.70;48.50
44579;DHT22;37422;51.402;0.016;2022-08-19T14:54:15;33.70;48.20
44579;DHT22;37422;51.402;0.016;2022-08-19T14:56:44;33.70;47.70
44579;DHT22;37422;51.402;0.016;2022-08-19T14:59:13;33.60;47.40
44579;DHT22;37422;51.402;0.016;2022-08-19T15:01:54;33.00;46.80
44579;DHT22;37422;51.402;0.016;2022-08-19T15:04:22;33.20;47.20
44579;DHT22;37422;51.402;0.016;2022-08-19T15:06:51;33.30;47.10
44579;DHT22;37422;51.402;0.016;2022-08-19T15:09:19;33.40;46.80
44579;DHT22;37422;51.402;0.016;2022-08-19T15:11:48;33.40;46.70
44579;DHT22;37422;51.402;0.016;2022-08-19T15:14:16;33.60;46.40
44579;DHT22;37422;51.402;0.016;2022-08-19T15:16:46;33.70;45.80
44579;DHT22;37422;51.402;0.016;2022-08-19T15:19:17;33.70;46.20
44579;DHT22;37422;51.402;0.016;2022-08-19T15:21:45;33.70;45.90
44579;DHT22;37422;51.402;0.016;2022-08-19T15:24:22;33.70;45.60
44579;DHT22;37422;51.402;0.016;2022-08-19T15:26:54;33.70;45.40
44579;DHT22;37422;51.402;0.016;2022-08-19T15:29:23;33.60;44.80
44579;DHT22;37422;51.402;0.016;2022-08-19T15:31:52;33.50;45.80
44579;DHT22;37422;51.402;0.016;2022-08-19T15:34:24;33.40;45.10
44579;DHT22;37422;51.402;0.016;2022-08-19T15:36:52;33.30;44.90
44579;DHT22;37422;51.402;0.016;2022-08-19T15:39:20;33.10;44.80
44579;DHT22;37422;51.402;0.016;2022-08-19T15:41:51;32.90;45.00
44579;DHT22;37422;51.402;0.016;2022-08-19T15:44:20;32.60;45.10
44579;DHT22;37422;51.402;0.016;2022-08-19T15:46:48;32.40;45.50
44579;DHT22;37422;51.402;0.016;2022-08-19T15:49:18;32.30;45.80
44579;DHT22;37422;51.402;0.016;2022-08-19T15:51:47;32.20;45.60
44579;DHT22;37422;51.402;0.016;2022-08-19T15:54:17;31.90;45.70
44579;DHT22;37422;51.402;0.016;2022-08-19T15:56:49;31.50;45.30
44579;DHT22;37422;51.402;0.016;2022-08-19T15:59:37;31.10;45.90
44579;DHT22;37422;51.402;0.016;2022-08-19T16:02:32;30.30;46.00
44579;DHT22;37422;51.402;0.016;2022-08-19T16:05:23;29.50;46.60
44579;DHT22;37422;51.402;0.016;2022-08-19T16:08:12;28.60;46.70
44579;DHT22;37422;51.402;0.016;2022-08-19T16:10:40;27.90;47.30